sensor_id;sensor_type;location;lat;lon;timestamp;P1;durP1;ratioP1;P2;durP2;ratioP2
9838;SDS011;4958;48.150;11.506;2022-07-12T00:00:36;3.40;;;3.10;;
9838;SDS011;4958;48.150;11.506;2022-07-12T00:03:03;3.35;;;3.15;;
9838;SDS011;4958;48.150;11.506;2022-07-12T00:05:29;3.08;;;2.88;;
9838;SDS011;4958;48.150;11.506;2022-07-12T00:07:57;3.50;;;3.20;;
9838;SDS011;4958;48.150;11.506;2022-07-12T00:10:23;3.00;;;2.80;;
9838;SDS011;4958;48.150;11.506;2022-07-12T00:12:50;2.97;;;2.78;;
9838;SDS011;4958;48.150;11.506;2022-07-12T00:15:16;2.70;;;2.50;;
9838;SDS011;4958;48.150;11.506;2022-07-12T00:17:42;2.90;;;2.70;;
9838;SDS011;4958;48.150;11.506;2022-07-12T00:20:09;3.10;;;2.90;;
9838;SDS011;4958;48.150;11.506;2022-07-12T00:22:36;3.95;;;2.95;;
9838;SDS011;4958;48.150;11.506;2022-07-12T00:25:05;2.90;;;2.65;;
9838;SDS011;4958;48.150;11.506;2022-07-12T00:27:32;3.20;;;3.00;;
9838;SDS011;4958;48.150;11.506;2022-07-12T00:29:58;2.90;;;2.70;;
9838;SDS011;4958;48.150;11.506;2022-07-12T00:32:25;3.10;;;2.78;;
9838;SDS011;4958;48.150;11.506;2022-07-12T00:34:51;6.72;;;3.15;;
9838;SDS011;4958;48.150;11.506;2022-07-12T00:37:17;3.65;;;3.00;;
9838;SDS011;4958;48.150;11.506;2022-07-12T00:39:45;4.80;;;3.42;;
9838;SDS011;4958;48.150;11.506;2022-07-12T00:42:12;3.20;;;2.95;;
9838;SDS011;4958;48.150;11.506;2022-07-12T00:44:39;3.33;;;3.03;;
9838;SDS011;4958;48.150;11.506;2022-07-12T00:47:05;3.10;;;2.90;;
9838;SDS011;4958;48.150;11.506;2022-07-12T00:49:32;3.20;;;2.90;;
9838;SDS011;4958;48.150;11.506;2022-07-12T00:51:58;3.00;;;2.80;;
9838;SDS011;4958;48.150;11.506;2022-07-12T00:54:26;3.80;;;2.90;;
9838;SDS011;4958;48.150;11.506;2022-07-12T00:56:52;5.53;;;2.95;;
9838;SDS011;4958;48.150;11.506;2022-07-12T00:59:21;3.15;;;2.85;;
9838;SDS011;4958;48.150;11.506;2022-07-12T01:01:47;4.03;;;3.60;;
9838;SDS011;4958;48.150;11.506;2022-07-12T01:04:14;4.07;;;3.63;;
9838;SDS011;4958;48.150;11.506;2022-07-12T01:06:43;3.90;;;3.60;;
9838;SDS011;4958;48.150;11.506;2022-07-12T01:09:09;3.60;;;3.30;;
9838;SDS011;4958;48.150;11.506;2022-07-12T01:11:36;2.80;;;2.60;;
9838;SDS011;4958;48.150;11.506;2022-07-12T01:14:03;3.28;;;2.97;;
9838;SDS011;4958;48.150;11.506;2022-07-12T01:16:31;3.30;;;3.00;;
9838;SDS011;4958;48.150;11.506;2022-07-12T01:18:59;3.50;;;3.20;;
9838;SDS011;4958;48.150;11.506;2022-07-12T01:21:26;4.93;;;2.95;;
9838;SDS011;4958;48.150;11.506;2022-07-12T01:23:58;3.20;;;2.90;;
9838;SDS011;4958;48.150;11.506;2022-07-12T01:26:27;3.05;;;2.85;;
9838;SDS011;4958;48.150;11.506;2022-07-12T01:28:54;3.50;;;2.60;;
9838;SDS011;4958;48.150;11.506;2022-07-12T01:31:22;3.05;;;2.50;;
9838;SDS011;4958;48.150;11.506;2022-07-12T01:33:48;3.05;;;2.85;;
9838;SDS011;4958;48.150;11.506;2022-07-12T01:36:15;3.53;;;2.90;;
9838;SDS011;4958;48.150;11.506;2022-07-12T01:38:42;4.30;;;2.88;;
9838;SDS011;4958;48.150;11.506;2022-07-12T01:41:09;3.10;;;2.80;;
9838;SDS011;4958;48.150;11.506;2022-07-12T01:43:36;2.92;;;2.70;;
9838;SDS011;4958;48.150;11.506;2022-07-12T01:46:02;2.88;;;2.67;;
9838;SDS011;4958;48.150;11.506;2022-07-12T01:48:29;3.25;;;2.85;;
9838;SDS011;4958;48.150;11.506;2022-07-12T01:50:55;2.80;;;2.60;;
9838;SDS011;4958;48.150;11.506;2022-07-12T01:53:22;3.17;;;2.88;;
9838;SDS011;4958;48.150;11.506;2022-07-12T01:55:48;3.50;;;2.63;;
9838;SDS011;4958;48.150;11.506;2022-07-12T01:58:16;2.58;;;2.38;;
9838;SDS011;4958;48.150;11.506;2022-07-12T02:00:43;2.83;;;2.53;;
9838;SDS011;4958;48.150;11.506;2022-07-12T02:03:16;3.00;;;2.70;;
9838;SDS011;4958;48.150;11.506;2022-07-12T02:05:42;2.65;;;2.45;;
9838;SDS011;4958;48.150;11.506;2022-07-12T02:08:08;2.70;;;2.50;;
9838;SDS011;4958;48.150;11.506;2022-07-12T02:10:35;2.70;;;2.50;;
9838;SDS011;4958;48.150;11.506;2022-07-12T02:13:02;2.50;;;2.30;;
9838;SDS011;4958;48.150;11.506;2022-07-12T02:15:30;3.83;;;2.70;;
9838;SDS011;4958;48.150;11.506;2022-07-12T02:17:57;3.70;;;2.85;;
9838;SDS011;4958;48.150;11.506;2022-07-12T02:20:23;4.57;;;2.63;;
9838;SDS011;4958;48.150;11.506;2022-07-12T02:22:50;2.78;;;2.40;;
9838;SDS011;4958;48.150;11.506;2022-07-12T02:25:16;3.15;;;2.85;;
9838;SDS011;4958;48.150;11.506;2022-07-12T02:27:43;3.60;;;2.58;;
9838;SDS011;4958;48.150;11.506;2022-07-12T02:30:10;3.65;;;2.67;;
9838;SDS011;4958;48.150;11.506;2022-07-12T02:32:38;2.90;;;2.70;;
9838;SDS011;4958;48.150;11.506;2022-07-12T02:35:05;2.60;;;2.40;;
9838;SDS011;4958;48.150;11.506;2022-07-12T02:37:31;3.55;;;2.60;;
9838;SDS011;4958;48.150;11.506;2022-07-12T02:39:58;2.90;;;2.70;;
9838;SDS011;4958;48.150;11.506;2022-07-12T02:42:38;3.15;;;2.80;;
9838;SDS011;4958;48.150;11.506;2022-07-12T02:45:05;2.88;;;2.67;;
9838;SDS011;4958;48.150;11.506;2022-07-12T02:47:32;2.80;;;2.60;;
9838;SDS011;4958;48.150;11.506;2022-07-12T02:50:04;3.17;;;2.60;;
9838;SDS011;4958;48.150;11.506;2022-07-12T02:52:31;5.85;;;2.72;;
9838;SDS011;4958;48.150;11.506;2022-07-12T02:54:58;3.15;;;2.60;;
9838;SDS011;4958;48.150;11.506;2022-07-12T02:57:24;2.58;;;2.38;;
9838;SDS011;4958;48.150;11.506;2022-07-12T02:59:51;2.50;;;2.30;;
9838;SDS011;4958;48.150;11.506;2022-07-12T03:02:17;2.83;;;2.63;;
9838;SDS011;4958;48.150;11.506;2022-07-12T03:04:44;2.65;;;2.45;;
9838;SDS011;4958;48.150;11.506;2022-07-12T03:07:11;2.60;;;2.40;;
9838;SDS011;4958;48.150;11.506;2022-07-12T03:09:38;2.80;;;2.60;;
9838;SDS011;4958;48.150;11.506;2022-07-12T03:12:04;3.60;;;2.97;;
9838;SDS011;4958;48.150;11.506;2022-07-12T03:14:32;3.40;;;2.78;;
9838;SDS011;4958;48.150;11.506;2022-07-12T03:16:58;3.47;;;2.97;;
9838;SDS011;4958;48.150;11.506;2022-07-12T03:19:25;3.40;;;3.10;;
9838;SDS011;4958;48.150;11.506;2022-07-12T03:21:51;3.58;;;3.28;;
9838;SDS011;4958;48.150;11.506;2022-07-12T03:24:19;3.40;;;3.10;;
9838;SDS011;4958;48.150;11.506;2022-07-12T03:26:45;3.35;;;3.05;;
9838;SDS011;4958;48.150;11.506;2022-07-12T03:29:12;3.50;;;3.20;;
9838;SDS011;4958;48.150;11.506;2022-07-12T03:31:38;6.32;;;3.97;;
9838;SDS011;4958;48.150;11.506;2022-07-12T03:34:04;3.45;;;3.15;;
9838;SDS011;4958;48.150;11.506;2022-07-12T03:36:31;3.75;;;3.45;;
9838;SDS011;4958;48.150;11.506;2022-07-12T03:38:57;3.58;;;3.28;;
9838;SDS011;4958;48.150;11.506;2022-07-12T03:41:25;3.95;;;3.60;;
9838;SDS011;4958;48.150;11.506;2022-07-12T03:43:51;3.97;;;3.30;;
9838;SDS011;4958;48.150;11.506;2022-07-12T03:46:18;3.55;;;3.15;;
9838;SDS011;4958;48.150;11.506;2022-07-12T03:48:44;3.60;;;3.25;;
9838;SDS011;4958;48.150;11.506;2022-07-12T03:51:11;3.50;;;3.22;;
9838;SDS011;4958;48.150;11.506;2022-07-12T03:53:37;4.18;;;3.45;;
9838;SDS011;4958;48.150;11.506;2022-07-12T03:56:04;4.15;;;3.47;;
9838;SDS011;4958;48.150;11.506;2022-07-12T03:58:32;4.20;;;3.42;;
9838;SDS011;4958;48.150;11.506;2022-07-12T04:00:58;3.83;;;3.35;;
9838;SDS011;4958;48.150;11.506;2022-07-12T04:03:25;3.55;;;3.25;;
9838;SDS011;4958;48.150;11.506;2022-07-12T04:05:51;6.80;;;3.67;;
9838;SDS011;4958;48.150;11.506;2022-07-12T04:08:17;4.15;;;3.85;;
9838;SDS011;4958;48.150;11.506;2022-07-12T04:10:44;4.43;;;3.70;;
9838;SDS011;4958;48.150;11.506;2022-07-12T04:13:10;4.50;;;3.58;;
9838;SDS011;4958;48.150;11.506;2022-07-12T04:15:38;3.95;;;3.65;;
9838;SDS011;4958;48.150;11.506;2022-07-12T04:18:04;5.55;;;3.78;;
9838;SDS011;4958;48.150;11.506;2022-07-12T04:20:31;4.30;;;3.90;;
9838;SDS011;4958;48.150;11.506;2022-07-12T04:22:57;4.22;;;3.92;;
9838;SDS011;4958;48.150;11.506;2022-07-12T04:25:24;3.80;;;3.50;;
9838;SDS011;4958;48.150;11.506;2022-07-12T04:27:51;4.13;;;3.80;;
9838;SDS011;4958;48.150;11.506;2022-07-12T04:30:20;4.13;;;3.75;;
9838;SDS011;4958;48.150;11.506;2022-07-12T04:32:48;5.30;;;3.83;;
9838;SDS011;4958;48.150;11.506;2022-07-12T04:35:14;4.30;;;3.97;;
9838;SDS011;4958;48.150;11.506;2022-07-12T04:37:41;4.00;;;3.67;;
9838;SDS011;4958;48.150;11.506;2022-07-12T04:40:08;6.65;;;3.83;;
9838;SDS011;4958;48.150;11.506;2022-07-12T04:42:35;4.00;;;3.70;;
9838;SDS011;4958;48.150;11.506;2022-07-12T04:45:01;4.47;;;3.63;;
9838;SDS011;4958;48.150;11.506;2022-07-12T04:47:28;4.53;;;3.90;;
9838;SDS011;4958;48.150;11.506;2022-07-12T04:49:56;4.43;;;4.03;;
9838;SDS011;4958;48.150;11.506;2022-07-12T04:52:23;4.13;;;3.83;;
9838;SDS011;4958;48.150;11.506;2022-07-12T04:54:49;4.07;;;3.78;;
9838;SDS011;4958;48.150;11.506;2022-07-12T04:57:15;5.75;;;3.92;;
9838;SDS011;4958;48.150;11.506;2022-07-12T04:59:42;4.05;;;3.65;;
9838;SDS011;4958;48.150;11.506;2022-07-12T05:02:08;4.90;;;4.07;;
9838;SDS011;4958;48.150;11.506;2022-07-12T05:04:35;4.72;;;4.18;;
9838;SDS011;4958;48.150;11.506;2022-07-12T05:07:05;4.25;;;3.88;;
9838;SDS011;4958;48.150;11.506;2022-07-12T05:09:31;4.97;;;4.32;;
9838;SDS011;4958;48.150;11.506;2022-07-12T05:11:58;4.30;;;3.88;;
9838;SDS011;4958;48.150;11.506;2022-07-12T05:14:24;6.10;;;3.85;;
9838;SDS011;4958;48.150;11.506;2022-07-12T05:16:51;4.50;;;4.05;;
9838;SDS011;4958;48.150;11.506;2022-07-12T05:19:17;5.55;;;3.63;;
9838;SDS011;4958;48.150;11.506;2022-07-12T05:21:44;4.13;;;3.80;;
9838;SDS011;4958;48.150;11.506;2022-07-12T05:24:12;5.18;;;4.28;;
9838;SDS011;4958;48.150;11.506;2022-07-12T05:26:38;6.22;;;5.15;;
9838;SDS011;4958;48.150;11.506;2022-07-12T05:29:05;4.57;;;4.10;;
9838;SDS011;4958;48.150;11.506;2022-07-12T05:31:31;5.30;;;4.15;;
9838;SDS011;4958;48.150;11.506;2022-07-12T05:33:58;3.83;;;3.53;;
9838;SDS011;4958;48.150;11.506;2022-07-12T05:36:24;8.32;;;7.53;;
9838;SDS011;4958;48.150;11.506;2022-07-12T05:38:51;6.32;;;5.70;;
9838;SDS011;4958;48.150;11.506;2022-07-12T05:41:19;5.38;;;4.07;;
9838;SDS011;4958;48.150;11.506;2022-07-12T05:43:45;4.18;;;3.78;;
9838;SDS011;4958;48.150;11.506;2022-07-12T05:46:11;3.50;;;3.20;;
9838;SDS011;4958;48.150;11.506;2022-07-12T05:48:38;3.78;;;3.42;;
9838;SDS011;4958;48.150;11.506;2022-07-12T05:51:05;3.33;;;3.03;;
9838;SDS011;4958;48.150;11.506;2022-07-12T05:53:48;3.60;;;3.30;;
9838;SDS011;4958;48.150;11.506;2022-07-12T05:56:15;3.72;;;3.20;;
9838;SDS011;4958;48.150;11.506;2022-07-12T05:58:43;3.47;;;3.17;;
9838;SDS011;4958;48.150;11.506;2022-07-12T06:01:09;3.72;;;2.85;;
9838;SDS011;4958;48.150;11.506;2022-07-12T06:03:36;3.20;;;2.78;;
9838;SDS011;4958;48.150;11.506;2022-07-12T06:06:02;3.00;;;2.65;;
9838;SDS011;4958;48.150;11.506;2022-07-12T06:08:29;3.30;;;3.10;;
9838;SDS011;4958;48.150;11.506;2022-07-12T06:10:55;4.25;;;3.08;;
9838;SDS011;4958;48.150;11.506;2022-07-12T06:13:22;2.58;;;2.38;;
9838;SDS011;4958;48.150;11.506;2022-07-12T06:15:50;2.70;;;2.50;;
9838;SDS011;4958;48.150;11.506;2022-07-12T06:18:17;2.20;;;2.00;;
9838;SDS011;4958;48.150;11.506;2022-07-12T06:20:43;3.00;;;1.85;;
9838;SDS011;4958;48.150;11.506;2022-07-12T06:23:10;2.20;;;2.00;;
9838;SDS011;4958;48.150;11.506;2022-07-12T06:25:38;3.10;;;2.28;;
9838;SDS011;4958;48.150;11.506;2022-07-12T06:28:04;3.88;;;2.10;;
9838;SDS011;4958;48.150;11.506;2022-07-12T06:30:30;1.90;;;1.80;;
9838;SDS011;4958;48.150;11.506;2022-07-12T06:32:58;1.65;;;1.55;;
9838;SDS011;4958;48.150;11.506;2022-07-12T06:35:25;1.55;;;1.45;;
9838;SDS011;4958;48.150;11.506;2022-07-12T06:37:52;3.00;;;1.50;;
9838;SDS011;4958;48.150;11.506;2022-07-12T06:40:19;2.38;;;1.88;;
9838;SDS011;4958;48.150;11.506;2022-07-12T06:42:45;3.10;;;2.10;;
9838;SDS011;4958;48.150;11.506;2022-07-12T06:45:12;2.42;;;1.70;;
9838;SDS011;4958;48.150;11.506;2022-07-12T06:47:38;1.70;;;1.52;;
9838;SDS011;4958;48.150;11.506;2022-07-12T06:50:06;1.50;;;1.40;;
9838;SDS011;4958;48.150;11.506;2022-07-12T06:52:33;1.50;;;1.40;;
9838;SDS011;4958;48.150;11.506;2022-07-12T06:55:00;1.50;;;1.40;;
9838;SDS011;4958;48.150;11.506;2022-07-12T06:57:27;1.58;;;1.48;;
9838;SDS011;4958;48.150;11.506;2022-07-12T06:59:54;2.60;;;1.58;;
9838;SDS011;4958;48.150;11.506;2022-07-12T07:02:21;1.98;;;1.88;;
9838;SDS011;4958;48.150;11.506;2022-07-12T07:04:48;1.60;;;1.50;;
9838;SDS011;4958;48.150;11.506;2022-07-12T07:07:16;2.33;;;1.58;;
9838;SDS011;4958;48.150;11.506;2022-07-12T07:09:42;2.08;;;1.70;;
9838;SDS011;4958;48.150;11.506;2022-07-12T07:12:09;2.45;;;1.65;;
9838;SDS011;4958;48.150;11.506;2022-07-12T07:14:36;1.95;;;1.48;;
9838;SDS011;4958;48.150;11.506;2022-07-12T07:17:03;2.33;;;1.30;;
9838;SDS011;4958;48.150;11.506;2022-07-12T07:19:29;2.00;;;1.50;;
9838;SDS011;4958;48.150;11.506;2022-07-12T07:21:56;1.60;;;1.50;;
9838;SDS011;4958;48.150;11.506;2022-07-12T07:24:25;1.67;;;1.48;;
9838;SDS011;4958;48.150;11.506;2022-07-12T07:26:52;1.70;;;1.60;;
9838;SDS011;4958;48.150;11.506;2022-07-12T07:29:18;1.70;;;1.60;;
9838;SDS011;4958;48.150;11.506;2022-07-12T07:32:03;1.45;;;1.35;;
9838;SDS011;4958;48.150;11.506;2022-07-12T07:34:30;1.83;;;1.50;;
9838;SDS011;4958;48.150;11.506;2022-07-12T07:36:56;1.10;;;1.10;;
9838;SDS011;4958;48.150;11.506;2022-07-12T07:39:22;1.40;;;1.30;;
9838;SDS011;4958;48.150;11.506;2022-07-12T07:41:50;1.20;;;1.10;;
9838;SDS011;4958;48.150;11.506;2022-07-12T07:44:17;3.10;;;1.50;;
9838;SDS011;4958;48.150;11.506;2022-07-12T07:46:43;1.42;;;1.20;;
9838;SDS011;4958;48.150;11.506;2022-07-12T07:49:09;1.83;;;1.50;;
9838;SDS011;4958;48.150;11.506;2022-07-12T07:51:36;1.30;;;1.20;;
9838;SDS011;4958;48.150;11.506;2022-07-12T07:54:02;2.78;;;1.50;;
9838;SDS011;4958;48.150;11.506;2022-07-12T07:56:30;1.42;;;1.33;;
9838;SDS011;4958;48.150;11.506;2022-07-12T07:58:56;1.50;;;1.30;;
9838;SDS011;4958;48.150;11.506;2022-07-12T08:01:23;1.50;;;1.40;;
9838;SDS011;4958;48.150;11.506;2022-07-12T08:04:07;1.40;;;1.30;;
9838;SDS011;4958;48.150;11.506;2022-07-12T08:06:34;3.25;;;1.50;;
9838;SDS011;4958;48.150;11.506;2022-07-12T08:09:00;1.50;;;1.20;;
9838;SDS011;4958;48.150;11.506;2022-07-12T08:11:27;1.60;;;1.38;;
9838;SDS011;4958;48.150;11.506;2022-07-12T08:13:54;1.40;;;1.30;;
9838;SDS011;4958;48.150;11.506;2022-07-12T08:16:21;1.30;;;1.20;;
9838;SDS011;4958;48.150;11.506;2022-07-12T08:18:47;2.10;;;1.20;;
9838;SDS011;4958;48.150;11.506;2022-07-12T08:21:14;1.40;;;1.30;;
9838;SDS011;4958;48.150;11.506;2022-07-12T08:23:40;1.20;;;1.10;;
9838;SDS011;4958;48.150;11.506;2022-07-12T08:26:07;1.20;;;1.10;;
9838;SDS011;4958;48.150;11.506;2022-07-12T08:28:33;1.73;;;1.30;;
9838;SDS011;4958;48.150;11.506;2022-07-12T08:31:01;1.60;;;1.50;;
9838;SDS011;4958;48.150;11.506;2022-07-12T08:33:27;3.80;;;1.58;;
9838;SDS011;4958;48.150;11.506;2022-07-12T08:35:54;3.85;;;1.30;;
9838;SDS011;4958;48.150;11.506;2022-07-12T08:38:20;1.30;;;1.20;;
9838;SDS011;4958;48.150;11.506;2022-07-12T08:40:47;1.05;;;1.05;;
9838;SDS011;4958;48.150;11.506;2022-07-12T08:43:13;3.00;;;1.20;;
9838;SDS011;4958;48.150;11.506;2022-07-12T08:45:40;1.20;;;1.10;;
9838;SDS011;4958;48.150;11.506;2022-07-12T08:48:08;1.23;;;1.10;;
9838;SDS011;4958;48.150;11.506;2022-07-12T08:50:34;1.05;;;1.00;;
9838;SDS011;4958;48.150;11.506;2022-07-12T08:53:01;1.13;;;1.02;;
9838;SDS011;4958;48.150;11.506;2022-07-12T08:55:28;1.15;;;1.10;;
9838;SDS011;4958;48.150;11.506;2022-07-12T08:57:56;1.60;;;1.33;;
9838;SDS011;4958;48.150;11.506;2022-07-12T09:00:24;1.35;;;1.20;;
9838;SDS011;4958;48.150;11.506;2022-07-12T09:02:52;1.50;;;1.38;;
9838;SDS011;4958;48.150;11.506;2022-07-12T09:05:25;1.40;;;1.30;;
9838;SDS011;4958;48.150;11.506;2022-07-12T09:08:01;1.67;;;1.20;;
9838;SDS011;4958;48.150;11.506;2022-07-12T09:10:28;1.38;;;1.27;;
9838;SDS011;4958;48.150;11.506;2022-07-12T09:12:55;2.00;;;1.00;;
9838;SDS011;4958;48.150;11.506;2022-07-12T09:15:22;1.10;;;1.00;;
9838;SDS011;4958;48.150;11.506;2022-07-12T09:18:00;1.10;;;1.10;;
9838;SDS011;4958;48.150;11.506;2022-07-12T09:20:30;1.60;;;1.40;;
9838;SDS011;4958;48.150;11.506;2022-07-12T09:22:58;1.27;;;1.05;;
9838;SDS011;4958;48.150;11.506;2022-07-12T09:25:26;1.20;;;1.20;;
9838;SDS011;4958;48.150;11.506;2022-07-12T09:27:53;1.70;;;1.10;;
9838;SDS011;4958;48.150;11.506;2022-07-12T09:30:21;1.50;;;1.40;;
9838;SDS011;4958;48.150;11.506;2022-07-12T09:32:52;2.47;;;1.30;;
9838;SDS011;4958;48.150;11.506;2022-07-12T09:35:39;1.35;;;1.25;;
9838;SDS011;4958;48.150;11.506;2022-07-12T09:38:24;1.20;;;1.20;;
9838;SDS011;4958;48.150;11.506;2022-07-12T09:40:51;4.65;;;1.50;;
9838;SDS011;4958;48.150;11.506;2022-07-12T09:43:19;1.40;;;1.30;;
9838;SDS011;4958;48.150;11.506;2022-07-12T09:45:46;1.63;;;1.10;;
9838;SDS011;4958;48.150;11.506;2022-07-12T09:48:13;1.40;;;1.30;;
9838;SDS011;4958;48.150;11.506;2022-07-12T09:50:42;1.85;;;1.30;;
9838;SDS011;4958;48.150;11.506;2022-07-12T09:53:12;1.23;;;1.08;;
9838;SDS011;4958;48.150;11.506;2022-07-12T09:55:45;1.20;;;1.10;;
9838;SDS011;4958;48.150;11.506;2022-07-12T09:58:15;1.52;;;1.30;;
9838;SDS011;4958;48.150;11.506;2022-07-12T10:00:48;1.58;;;1.40;;
9838;SDS011;4958;48.150;11.506;2022-07-12T10:03:17;1.60;;;1.30;;
9838;SDS011;4958;48.150;11.506;2022-07-12T10:05:48;1.23;;;1.20;;
9838;SDS011;4958;48.150;11.506;2022-07-12T10:08:16;1.35;;;1.10;;
9838;SDS011;4958;48.150;11.506;2022-07-12T10:10:43;1.70;;;1.40;;
9838;SDS011;4958;48.150;11.506;2022-07-12T10:13:10;1.30;;;1.20;;
9838;SDS011;4958;48.150;11.506;2022-07-12T10:15:39;1.30;;;1.20;;
9838;SDS011;4958;48.150;11.506;2022-07-12T10:18:08;3.88;;;1.67;;
9838;SDS011;4958;48.150;11.506;2022-07-12T10:20:41;1.88;;;1.27;;
9838;SDS011;4958;48.150;11.506;2022-07-12T10:26:00;1.38;;;1.20;;
9838;SDS011;4958;48.150;11.506;2022-07-12T10:31:23;1.73;;;1.40;;
9838;SDS011;4958;48.150;11.506;2022-07-12T10:33:58;1.35;;;1.25;;
9838;SDS011;4958;48.150;11.506;2022-07-12T10:36:25;1.20;;;1.10;;
9838;SDS011;4958;48.150;11.506;2022-07-12T10:39:10;1.25;;;1.10;;
9838;SDS011;4958;48.150;11.506;2022-07-12T10:41:38;1.20;;;1.10;;
9838;SDS011;4958;48.150;11.506;2022-07-12T10:44:07;2.25;;;1.20;;
9838;SDS011;4958;48.150;11.506;2022-07-12T10:46:34;2.22;;;1.10;;
9838;SDS011;4958;48.150;11.506;2022-07-12T10:57:44;0.80;;;0.80;;
9838;SDS011;4958;48.150;11.506;2022-07-12T11:00:14;0.95;;;0.95;;
9838;SDS011;4958;48.150;11.506;2022-07-12T11:02:41;1.17;;;1.08;;
9838;SDS011;4958;48.150;11.506;2022-07-12T11:05:08;0.90;;;0.90;;
9838;SDS011;4958;48.150;11.506;2022-07-12T11:07:35;2.03;;;0.93;;
9838;SDS011;4958;48.150;11.506;2022-07-12T11:10:02;1.10;;;1.00;;
9838;SDS011;4958;48.150;11.506;2022-07-12T11:12:31;2.08;;;1.30;;
9838;SDS011;4958;48.150;11.506;2022-07-12T11:14:59;1.05;;;1.00;;
9838;SDS011;4958;48.150;11.506;2022-07-12T11:17:26;0.90;;;0.90;;
9838;SDS011;4958;48.150;11.506;2022-07-12T11:20:02;2.05;;;0.90;;
9838;SDS011;4958;48.150;11.506;2022-07-12T11:22:30;0.93;;;0.93;;
9838;SDS011;4958;48.150;11.506;2022-07-12T11:24:57;0.90;;;0.90;;
9838;SDS011;4958;48.150;11.506;2022-07-12T11:27:25;1.75;;;1.13;;
9838;SDS011;4958;48.150;11.506;2022-07-12T11:29:59;2.33;;;1.00;;
9838;SDS011;4958;48.150;11.506;2022-07-12T11:32:35;1.13;;;1.10;;
9838;SDS011;4958;48.150;11.506;2022-07-12T11:35:04;1.00;;;1.00;;
9838;SDS011;4958;48.150;11.506;2022-07-12T11:37:50;1.02;;;1.00;;
9838;SDS011;4958;48.150;11.506;2022-07-12T11:40:21;1.23;;;1.08;;
9838;SDS011;4958;48.150;11.506;2022-07-12T11:42:55;1.08;;;1.00;;
9838;SDS011;4958;48.150;11.506;2022-07-12T11:45:25;1.15;;;0.98;;
9838;SDS011;4958;48.150;11.506;2022-07-12T11:47:52;0.98;;;0.98;;
9838;SDS011;4958;48.150;11.506;2022-07-12T11:50:18;1.00;;;1.00;;
9838;SDS011;4958;48.150;11.506;2022-07-12T11:52:45;1.00;;;1.00;;
9838;SDS011;4958;48.150;11.506;2022-07-12T11:55:12;0.95;;;0.95;;
9838;SDS011;4958;48.150;11.506;2022-07-12T11:57:39;0.90;;;0.90;;
9838;SDS011;4958;48.150;11.506;2022-07-12T12:00:15;0.82;;;0.82;;
9838;SDS011;4958;48.150;11.506;2022-07-12T12:02:43;0.80;;;0.80;;
9838;SDS011;4958;48.150;11.506;2022-07-12T12:05:10;0.85;;;0.85;;
9838;SDS011;4958;48.150;11.506;2022-07-12T12:07:37;0.90;;;0.90;;
9838;SDS011;4958;48.150;11.506;2022-07-12T12:10:04;1.00;;;1.00;;
9838;SDS011;4958;48.150;11.506;2022-07-12T12:12:35;2.15;;;1.10;;
9838;SDS011;4958;48.150;11.506;2022-07-12T12:15:03;2.00;;;0.80;;
9838;SDS011;4958;48.150;11.506;2022-07-12T12:17:30;2.88;;;1.10;;
9838;SDS011;4958;48.150;11.506;2022-07-12T12:19:58;1.35;;;0.82;;
9838;SDS011;4958;48.150;11.506;2022-07-12T12:22:34;1.05;;;1.00;;
9838;SDS011;4958;48.150;11.506;2022-07-12T12:25:02;1.23;;;1.13;;
9838;SDS011;4958;48.150;11.506;2022-07-12T12:27:30;0.80;;;0.80;;
9838;SDS011;4958;48.150;11.506;2022-07-12T12:29:58;0.93;;;0.88;;
9838;SDS011;4958;48.150;11.506;2022-07-12T12:32:25;2.85;;;1.30;;
9838;SDS011;4958;48.150;11.506;2022-07-12T12:35:08;1.10;;;1.00;;
9838;SDS011;4958;48.150;11.506;2022-07-12T12:37:36;1.92;;;1.10;;
9838;SDS011;4958;48.150;11.506;2022-07-12T12:40:03;1.10;;;1.00;;
9838;SDS011;4958;48.150;11.506;2022-07-12T12:42:30;2.15;;;0.80;;
9838;SDS011;4958;48.150;11.506;2022-07-12T12:44:56;0.77;;;0.77;;
9838;SDS011;4958;48.150;11.506;2022-07-12T12:47:22;2.75;;;1.05;;
9838;SDS011;4958;48.150;11.506;2022-07-12T12:49:59;0.88;;;0.88;;
9838;SDS011;4958;48.150;11.506;2022-07-12T12:52:28;0.90;;;0.90;;
9838;SDS011;4958;48.150;11.506;2022-07-12T12:54:55;1.42;;;0.95;;
9838;SDS011;4958;48.150;11.506;2022-07-12T12:57:23;0.95;;;0.80;;
9838;SDS011;4958;48.150;11.506;2022-07-12T12:59:50;1.00;;;1.00;;
9838;SDS011;4958;48.150;11.506;2022-07-12T13:02:17;2.13;;;0.98;;
9838;SDS011;4958;48.150;11.506;2022-07-12T13:04:45;0.90;;;0.90;;
9838;SDS011;4958;48.150;11.506;2022-07-12T13:07:12;1.10;;;0.90;;
9838;SDS011;4958;48.150;11.506;2022-07-12T13:09:39;0.80;;;0.80;;
9838;SDS011;4958;48.150;11.506;2022-07-12T13:12:07;1.60;;;1.00;;
9838;SDS011;4958;48.150;11.506;2022-07-12T13:14:34;0.70;;;0.70;;
9838;SDS011;4958;48.150;11.506;2022-07-12T13:17:00;0.73;;;0.73;;
9838;SDS011;4958;48.150;11.506;2022-07-12T13:19:27;0.85;;;0.85;;
9838;SDS011;4958;48.150;11.506;2022-07-12T13:21:53;2.25;;;0.90;;
9838;SDS011;4958;48.150;11.506;2022-07-12T13:24:20;0.90;;;0.90;;
9838;SDS011;4958;48.150;11.506;2022-07-12T13:26:47;0.90;;;0.90;;
9838;SDS011;4958;48.150;11.506;2022-07-12T13:29:14;1.52;;;0.90;;
9838;SDS011;4958;48.150;11.506;2022-07-12T13:31:40;1.13;;;0.90;;
9838;SDS011;4958;48.150;11.506;2022-07-12T13:34:07;1.00;;;0.98;;
9838;SDS011;4958;48.150;11.506;2022-07-12T13:36:33;1.50;;;0.88;;
9838;SDS011;4958;48.150;11.506;2022-07-12T13:38:59;1.15;;;0.90;;
9838;SDS011;4958;48.150;11.506;2022-07-12T13:41:47;0.70;;;0.70;;
9838;SDS011;4958;48.150;11.506;2022-07-12T13:44:14;0.88;;;0.70;;
9838;SDS011;4958;48.150;11.506;2022-07-12T13:46:40;2.25;;;0.90;;
9838;SDS011;4958;48.150;11.506;2022-07-12T13:49:07;1.30;;;1.02;;
9838;SDS011;4958;48.150;11.506;2022-07-12T13:51:33;1.00;;;1.00;;
9838;SDS011;4958;48.150;11.506;2022-07-12T13:54:00;0.77;;;0.77;;
9838;SDS011;4958;48.150;11.506;2022-07-12T13:56:26;1.25;;;0.90;;
9838;SDS011;4958;48.150;11.506;2022-07-12T13:58:54;2.22;;;1.23;;
9838;SDS011;4958;48.150;11.506;2022-07-12T14:01:20;1.20;;;0.90;;
9838;SDS011;4958;48.150;11.506;2022-07-12T14:03:47;2.20;;;0.90;;
9838;SDS011;4958;48.150;11.506;2022-07-12T14:06:13;0.77;;;0.77;;
9838;SDS011;4958;48.150;11.506;2022-07-12T14:08:39;0.90;;;0.90;;
9838;SDS011;4958;48.150;11.506;2022-07-12T14:11:06;0.85;;;0.85;;
9838;SDS011;4958;48.150;11.506;2022-07-12T14:13:32;1.20;;;0.90;;
9838;SDS011;4958;48.150;11.506;2022-07-12T14:16:00;1.27;;;1.13;;
9838;SDS011;4958;48.150;11.506;2022-07-12T14:18:27;1.15;;;0.80;;
9838;SDS011;4958;48.150;11.506;2022-07-12T14:20:53;0.90;;;0.90;;
9838;SDS011;4958;48.150;11.506;2022-07-12T14:23:20;3.85;;;0.90;;
9838;SDS011;4958;48.150;11.506;2022-07-12T14:25:46;2.05;;;0.70;;
9838;SDS011;4958;48.150;11.506;2022-07-12T14:28:12;0.98;;;0.88;;
9838;SDS011;4958;48.150;11.506;2022-07-12T14:30:39;1.00;;;0.80;;
9838;SDS011;4958;48.150;11.506;2022-07-12T14:33:07;1.15;;;0.90;;
9838;SDS011;4958;48.150;11.506;2022-07-12T14:35:33;1.80;;;0.98;;
9838;SDS011;4958;48.150;11.506;2022-07-12T14:37:59;1.50;;;1.00;;
9838;SDS011;4958;48.150;11.506;2022-07-12T14:40:28;1.77;;;1.00;;
9838;SDS011;4958;48.150;11.506;2022-07-12T14:42:55;0.90;;;0.90;;
9838;SDS011;4958;48.150;11.506;2022-07-12T14:45:22;1.02;;;0.73;;
9838;SDS011;4958;48.150;11.506;2022-07-12T14:47:48;1.88;;;0.80;;
9838;SDS011;4958;48.150;11.506;2022-07-12T14:50:19;1.10;;;1.00;;
9838;SDS011;4958;48.150;11.506;2022-07-12T14:52:45;1.27;;;1.17;;
9838;SDS011;4958;48.150;11.506;2022-07-12T14:55:12;4.55;;;2.38;;
9838;SDS011;4958;48.150;11.506;2022-07-12T14:57:38;8.05;;;7.25;;
9838;SDS011;4958;48.150;11.506;2022-07-12T15:00:06;2.10;;;2.00;;
9838;SDS011;4958;48.150;11.506;2022-07-12T15:02:34;1.52;;;0.98;;
9838;SDS011;4958;48.150;11.506;2022-07-12T15:05:01;1.23;;;1.00;;
9838;SDS011;4958;48.150;11.506;2022-07-12T15:07:31;1.00;;;1.00;;
9838;SDS011;4958;48.150;11.506;2022-07-12T15:09:58;0.80;;;0.80;;
9838;SDS011;4958;48.150;11.506;2022-07-12T15:12:24;0.80;;;0.80;;
9838;SDS011;4958;48.150;11.506;2022-07-12T15:14:51;1.70;;;0.90;;
9838;SDS011;4958;48.150;11.506;2022-07-12T15:17:18;0.80;;;0.80;;